Time;durP1;ratioP1;P1;durP2;ratioP2;P2;SDS_P1;SDS_P2;PMS_P1;PMS_P2;Temp;Humidity;BMP_temperature;BMP_pressure;BME280_temperature;BME280_humidity;BME280_pressure;Samples;Min_cycle;Max_cycle;Signal;HPM_P1;HPM_P2
2023/01/24 00:00:14;;;;;;;;;;;4.40;99.90;;;;;;5060100;28;19928;-79
2023/01/24 00:02:41;;;;;;;;;;;4.30;99.90;;;;;;5038258;28;19924;-79
2023/01/24 00:05:09;;;;;;;;;;;4.30;99.90;;;;;;5034271;28;19994;-79
2023/01/24 00:07:36;;;;;;;;;;;4.30;99.90;;;;;;5043932;28;19928;-80
2023/01/24 00:10:03;;;;;;;;;;;4.40;99.90;;;;;;5061572;28;19960;-80
2023/01/24 00:12:30;;;;;;;;;;;4.30;99.90;;;;;;5043094;28;19933;-79
2023/01/24 00:14:57;;;;;;;;;;;4.30;99.90;;;;;;5043156;28;19928;-79
2023/01/24 00:17:26;;;;;;;;;;;4.20;99.90;;;;;;5030802;28;20555;-80
2023/01/24 00:19:53;;;;;;;;;;;4.20;99.90;;;;;;5049191;28;19925;-79
2023/01/24 00:22:20;;;;;;;;;;;4.10;99.90;;;;;;5066078;28;19963;-80
2023/01/24 00:24:50;;;;;;;;;;;4.10;99.90;;;;;;5051550;28;19929;-80
2023/01/24 00:27:17;;;;;;;;;;;4.20;99.90;;;;;;5046004;28;20404;-81
2023/01/24 00:29:44;;;;;;;;;;;4.20;99.90;;;;;;5041355;28;19932;-79
2023/01/24 00:32:11;;;;;;;;;;;4.30;99.90;;;;;;5043290;28;20396;-79
2023/01/24 00:34:39;;;;;;;;;;;4.20;99.90;;;;;;5040049;28;19933;-80
2023/01/24 00:37:06;;;;;;;;;;;4.30;99.90;;;;;;5045325;28;19948;-80
2023/01/24 00:39:33;;;;;;;;;;;4.20;99.90;;;;;;5075710;28;19925;-80
2023/01/24 00:42:00;;;;;;;;;;;4.20;99.90;;;;;;5056859;28;20710;-80
2023/01/24 00:44:27;;;;;;;;;;;4.20;99.90;;;;;;5067476;28;19932;-80
2023/01/24 00:46:54;;;;;;;;;;;4.20;99.90;;;;;;5046336;28;19925;-80
2023/01/24 00:49:21;;;;;;;;;;;4.20;99.90;;;;;;5059204;28;19925;-80
2023/01/24 00:51:49;;;;;;;;;;;4.10;99.90;;;;;;5049259;28;19936;-80
2023/01/24 00:54:16;;;;;;;;;;;4.10;99.90;;;;;;5054174;28;19977;-80
2023/01/24 00:56:43;;;;;;;;;;;4.20;99.90;;;;;;5037954;28;19982;-80
2023/01/24 00:59:10;;;;;;;;;;;4.20;99.90;;;;;;5033720;28;20304;-80
2023/01/24 01:01:36;;;;;;;;;;;4.20;99.90;;;;;;5051067;28;19932;-80
2023/01/24 01:04:03;;;;;;;;;;;4.10;99.90;;;;;;5052830;28;20382;-80
2023/01/24 01:06:30;;;;;;;;;;;4.10;99.90;;;;;;5038916;28;19928;-80
2023/01/24 01:08:59;;;;;;;;;;;4.10;99.90;;;;;;5040275;28;19939;-80
2023/01/24 01:11:26;;;;;;;;;;;4.10;99.90;;;;;;5045733;28;20015;-80
2023/01/24 01:13:54;;;;;;;;;;;4.10;99.90;;;;;;5048587;28;19935;-79
2023/01/24 01:16:22;;;;;;;;;;;4.00;99.90;;;;;;5039022;28;20435;-79
2023/01/24 01:18:50;;;;;;;;;;;4.00;99.90;;;;;;5046048;28;20419;-80
2023/01/24 01:21:18;;;;;;;;;;;4.00;99.90;;;;;;5037622;28;20019;-79
2023/01/24 01:23:45;;;;;;;;;;;4.00;99.90;;;;;;5037111;28;19928;-79
2023/01/24 01:26:16;;;;;;;;;;;4.00;99.90;;;;;;5045135;28;19936;-79
2023/01/24 01:28:43;;;;;;;;;;;4.00;99.90;;;;;;5034595;28;20436;-79
2023/01/24 01:31:10;;;;;;;;;;;4.00;99.90;;;;;;5033671;28;20004;-79
2023/01/24 01:33:37;;;;;;;;;;;4.00;99.90;;;;;;5037080;28;19929;-79
2023/01/24 01:36:06;;;;;;;;;;;4.00;99.90;;;;;;5039169;28;19955;-82
2023/01/24 01:38:32;;;;;;;;;;;4.00;99.90;;;;;;5046655;28;19929;-80
2023/01/24 01:40:59;;;;;;;;;;;3.90;99.90;;;;;;5040918;28;19929;-80
2023/01/24 01:43:29;;;;;;;;;;;3.90;99.90;;;;;;5037954;28;19955;-81
2023/01/24 01:45:58;;;;;;;;;;;3.90;99.90;;;;;;5044232;28;20295;-79
2023/01/24 01:48:29;;;;;;;;;;;3.90;99.90;;;;;;5050745;28;19930;-79
2023/01/24 01:50:59;;;;;;;;;;;3.90;99.90;;;;;;5051383;28;19936;-79
2023/01/24 01:53:28;;;;;;;;;;;3.90;99.90;;;;;;5055799;28;19970;-80
2023/01/24 01:55:56;;;;;;;;;;;3.90;99.90;;;;;;5051532;28;19924;-80
2023/01/24 01:58:23;;;;;;;;;;;3.90;99.90;;;;;;5038011;28;19925;-81
2023/01/24 02:00:51;;;;;;;;;;;3.90;99.90;;;;;;5046492;28;20335;-79
2023/01/24 02:03:40;;;;;;;;;;;3.90;99.90;;;;;;5025832;28;19925;-79
2023/01/24 02:06:16;;;;;;;;;;;3.90;99.90;;;;;;5037187;28;19970;-79
2023/01/24 02:08:44;;;;;;;;;;;3.90;99.90;;;;;;5032416;28;19931;-79
2023/01/24 02:16:02;;;;;;;;;;;3.90;99.90;;;;;;5037676;28;20318;-81
2023/01/24 02:16:44;;;;;;;;;;;3.90;99.90;;;;;;5045267;28;19932;-80
2023/01/24 02:19:13;;;;;;;;;;;3.90;99.90;;;;;;5042763;28;19924;-80
2023/01/24 02:21:40;;;;;;;;;;;3.80;99.90;;;;;;5026302;28;20102;-80
2023/01/24 02:24:11;;;;;;;;;;;3.80;99.90;;;;;;5037931;28;19925;-80
2023/01/24 02:26:39;;;;;;;;;;;3.80;99.90;;;;;;5032127;28;19936;-80
2023/01/24 02:29:07;;;;;;;;;;;3.80;99.90;;;;;;5032916;28;19940;-79
2023/01/24 02:31:49;;;;;;;;;;;3.80;99.90;;;;;;5034448;28;19956;-80
2023/01/24 02:34:20;;;;;;;;;;;3.80;99.90;;;;;;5038605;28;19956;-80
2023/01/24 02:36:47;;;;;;;;;;;3.90;99.90;;;;;;5038404;28;19933;-80
2023/01/24 02:39:16;;;;;;;;;;;3.90;99.90;;;;;;5040515;28;19932;-80
2023/01/24 02:41:46;;;;;;;;;;;3.90;99.90;;;;;;5054123;28;19932;-80
2023/01/24 02:44:18;;;;;;;;;;;3.90;99.90;;;;;;5039089;28;20387;-80
2023/01/24 02:46:45;;;;;;;;;;;3.80;99.90;;;;;;5055765;28;19958;-80
2023/01/24 02:49:12;;;;;;;;;;;3.80;99.90;;;;;;5042398;28;20020;-80
2023/01/24 02:54:24;;;;;;;;;;;3.90;99.90;;;;;;5043057;28;19932;-80
2023/01/24 02:59:37;;;;;;;;;;;3.90;99.90;;;;;;5037563;28;20617;-80
2023/01/24 03:02:05;;;;;;;;;;;4.00;99.90;;;;;;5026821;28;20412;-80
2023/01/24 03:04:32;;;;;;;;;;;4.00;99.90;;;;;;5030877;28;19925;-80
2023/01/24 03:07:03;;;;;;;;;;;3.90;99.90;;;;;;5023839;28;19929;-79
2023/01/24 03:09:35;;;;;;;;;;;3.80;99.90;;;;;;5059591;28;20297;-80
2023/01/24 03:36:55;;;;;;;;;;;3.70;99.90;;;;;;5038890;28;19920;-79
2023/01/24 03:42:06;;;;;;;;;;;3.70;99.90;;;;;;5042597;28;19920;-80
2023/01/24 03:44:34;;;;;;;;;;;3.80;99.90;;;;;;5040175;28;20007;-79
2023/01/24 03:47:02;;;;;;;;;;;3.80;99.90;;;;;;5044649;28;19951;-80
2023/01/24 03:52:27;;;;;;;;;;;3.80;99.90;;;;;;5048394;28;20058;-79
2023/01/24 03:54:54;;;;;;;;;;;3.70;99.90;;;;;;5048393;28;20571;-78
2023/01/24 03:57:23;;;;;;;;;;;3.70;99.90;;;;;;5038421;28;19939;-79
2023/01/24 03:59:53;;;;;;;;;;;3.70;99.90;;;;;;5042129;28;19939;-78
2023/01/24 04:02:20;;;;;;;;;;;2.40;99.90;;;;;;5037796;28;19929;-78
2023/01/24 04:07:33;;;;;;;;;;;3.70;99.90;;;;;;5043511;28;20011;-79
2023/01/24 04:10:03;;;;;;;;;;;3.70;99.90;;;;;;5032843;28;19924;-81
2023/01/24 04:12:37;;;;;;;;;;;3.70;99.90;;;;;;5038965;28;20326;-80
2023/01/24 04:15:07;;;;;;;;;;;3.70;99.90;;;;;;5030774;28;20020;-80
2023/01/24 04:17:34;;;;;;;;;;;3.80;99.90;;;;;;5044622;28;19956;-80
2023/01/24 04:20:04;;;;;;;;;;;3.70;99.90;;;;;;5046737;28;20316;-80
2023/01/24 04:22:31;;;;;;;;;;;3.70;99.90;;;;;;5041447;28;19929;-80
2023/01/24 04:25:00;;;;;;;;;;;3.70;99.90;;;;;;5046951;28;19935;-80
2023/01/24 04:27:31;;;;;;;;;;;3.70;99.90;;;;;;5043883;28;19925;-81
2023/01/24 04:30:15;;;;;;;;;;;4.70;99.90;;;;;;5031764;28;20607;-80
2023/01/24 04:32:44;;;;;;;;;;;3.70;99.90;;;;;;5042752;28;19963;-80
2023/01/24 04:35:18;;;;;;;;;;;3.70;99.90;;;;;;5035395;28;19929;-80
2023/01/24 04:37:50;;;;;;;;;;;3.60;99.90;;;;;;5033023;28;19936;-79
2023/01/24 04:40:26;;;;;;;;;;;3.60;99.90;;;;;;5055424;28;19964;-79
2023/01/24 04:42:56;;;;;;;;;;;3.60;99.90;;;;;;5038157;28;19929;-79
2023/01/24 04:45:24;;;;;;;;;;;3.60;99.90;;;;;;5049400;28;19928;-79
2023/01/24 04:47:51;;;;;;;;;;;3.50;99.90;;;;;;5033206;28;20053;-79
2023/01/24 04:50:18;;;;;;;;;;;3.50;99.90;;;;;;5026472;28;19940;-80
2023/01/24 04:52:50;;;;;;;;;;;3.50;99.90;;;;;;5038274;28;20035;-79
2023/01/24 04:55:18;;;;;;;;;;;3.50;99.90;;;;;;5036929;28;19929;-79
2023/01/24 04:57:45;;;;;;;;;;;3.40;99.90;;;;;;5034041;28;19935;-79
2023/01/24 05:00:12;;;;;;;;;;;3.40;99.90;;;;;;5033670;28;19978;-79
2023/01/24 05:02:40;;;;;;;;;;;3.40;99.90;;;;;;5044338;28;19929;-79
2023/01/24 05:05:07;;;;;;;;;;;3.40;99.90;;;;;;5043613;28;19980;-78
2023/01/24 05:07:34;;;;;;;;;;;3.30;99.90;;;;;;5045911;28;20024;-79
2023/01/24 05:10:07;;;;;;;;;;;3.30;99.90;;;;;;5035450;28;19933;-79
2023/01/24 05:12:35;;;;;;;;;;;3.30;99.90;;;;;;5042019;28;20404;-79
2023/01/24 05:15:09;;;;;;;;;;;3.30;99.90;;;;;;5041779;28;19929;-79
2023/01/24 05:17:36;;;;;;;;;;;3.20;99.90;;;;;;5040701;28;19936;-78
2023/01/24 05:20:05;;;;;;;;;;;3.20;99.90;;;;;;5036356;28;19932;-79
2023/01/24 05:22:33;;;;;;;;;;;3.30;99.90;;;;;;5044472;28;19972;-79
2023/01/24 05:24:59;;;;;;;;;;;3.30;99.90;;;;;;5041859;28;19935;-79
2023/01/24 05:27:26;;;;;;;;;;;3.40;99.90;;;;;;5046594;28;19929;-79
2023/01/24 05:29:59;;;;;;;;;;;3.40;99.90;;;;;;5041185;28;19928;-79
2023/01/24 05:32:27;;;;;;;;;;;3.40;99.90;;;;;;5041086;28;19964;-78
2023/01/24 05:34:54;;;;;;;;;;;3.50;99.90;;;;;;5038562;28;19929;-79
2023/01/24 05:37:22;;;;;;;;;;;3.50;99.90;;;;;;5060833;28;20042;-78
2023/01/24 05:39:49;;;;;;;;;;;3.60;99.90;;;;;;5033086;28;19968;-78
2023/01/24 05:42:16;;;;;;;;;;;3.60;99.90;;;;;;5037992;28;19968;-79
2023/01/24 05:44:46;;;;;;;;;;;3.60;99.90;;;;;;5046600;28;19955;-78
2023/01/24 05:47:14;;;;;;;;;;;3.70;99.90;;;;;;5068204;28;19932;-79
2023/01/24 05:49:42;;;;;;;;;;;3.70;99.90;;;;;;5047823;28;20346;-81
2023/01/24 05:52:10;;;;;;;;;;;3.70;99.90;;;;;;5061872;28;20368;-81
2023/01/24 05:54:51;;;;;;;;;;;3.70;99.90;;;;;;5034778;28;19960;-79
2023/01/24 05:57:36;;;;;;;;;;;3.60;99.90;;;;;;5034868;28;19929;-80
2023/01/24 06:00:16;;;;;;;;;;;3.60;99.90;;;;;;5062217;28;20438;-80
2023/01/24 06:02:53;;;;;;;;;;;3.60;99.90;;;;;;5046232;28;19956;-81
2023/01/24 06:05:24;;;;;;;;;;;3.60;99.90;;;;;;5052625;28;19924;-76
2023/01/24 06:07:51;;;;;;;;;;;3.70;99.90;;;;;;5044080;28;20221;-76
2023/01/24 06:10:25;;;;;;;;;;;3.70;99.90;;;;;;5035884;28;19971;-77
2023/01/24 06:13:02;;;;;;;;;;;3.70;99.90;;;;;;5053480;28;20327;-81
2023/01/24 06:15:29;;;;;;;;;;;3.80;99.90;;;;;;5044958;28;19928;-81
2023/01/24 06:17:57;;;;;;;;;;;3.80;99.90;;;;;;5038256;28;19924;-81
2023/01/24 06:20:24;;;;;;;;;;;3.70;99.90;;;;;;5037981;28;19925;-81
2023/01/24 06:22:52;;;;;;;;;;;3.80;99.90;;;;;;5039094;28;20035;-82
2023/01/24 06:25:24;;;;;;;;;;;3.70;99.90;;;;;;5037170;28;20403;-81
2023/01/24 06:27:54;;;;;;;;;;;3.80;99.90;;;;;;5037364;28;19968;-82
2023/01/24 06:30:23;;;;;;;;;;;3.80;99.90;;;;;;5039748;28;19928;-79
2023/01/24 06:33:02;;;;;;;;;;;3.80;99.90;;;;;;5039710;28;20355;-80
2023/01/24 06:35:37;;;;;;;;;;;3.80;99.90;;;;;;5048977;28;19929;-77
2023/01/24 06:38:05;;;;;;;;;;;3.90;99.90;;;;;;5044535;28;20389;-77
2023/01/24 06:40:33;;;;;;;;;;;3.90;99.90;;;;;;5029485;28;19929;-80
2023/01/24 06:43:00;;;;;;;;;;;3.90;99.90;;;;;;5012331;28;19948;-76
2023/01/24 06:45:27;;;;;;;;;;;3.90;99.90;;;;;;5031085;28;20482;-76
2023/01/24 06:47:55;;;;;;;;;;;3.90;99.90;;;;;;5023816;28;19928;-77
2023/01/24 06:50:22;;;;;;;;;;;3.80;99.90;;;;;;5033732;28;19962;-76
2023/01/24 06:52:50;;;;;;;;;;;3.80;99.90;;;;;;5052687;28;19956;-76
2023/01/24 06:55:18;;;;;;;;;;;3.80;99.90;;;;;;5042856;28;19925;-78
2023/01/24 06:57:47;;;;;;;;;;;3.80;99.90;;;;;;5044955;28;19924;-80
2023/01/24 07:00:14;;;;;;;;;;;3.80;99.90;;;;;;5043795;28;19929;-80
2023/01/24 07:02:41;;;;;;;;;;;3.80;99.90;;;;;;5025596;28;19924;-81
2023/01/24 07:05:09;;;;;;;;;;;3.70;99.90;;;;;;5036914;28;19956;-80
2023/01/24 07:07:35;;;;;;;;;;;3.70;99.90;;;;;;5035836;28;19925;-79
2023/01/24 07:10:03;;;;;;;;;;;3.70;99.90;;;;;;5029154;28;20028;-80
2023/01/24 07:12:30;;;;;;;;;;;3.60;99.90;;;;;;5035243;28;20603;-80
2023/01/24 07:14:58;;;;;;;;;;;3.60;99.90;;;;;;5025087;28;20031;-80
2023/01/24 07:17:25;;;;;;;;;;;3.70;99.90;;;;;;5038041;28;19924;-80
2023/01/24 07:19:52;;;;;;;;;;;3.70;99.90;;;;;;5030710;28;20435;-80
2023/01/24 07:22:19;;;;;;;;;;;3.70;99.90;;;;;;5042510;28;19925;-80
2023/01/24 07:24:47;;;;;;;;;;;3.70;99.90;;;;;;5034036;28;19929;-80
2023/01/24 07:27:14;;;;;;;;;;;3.80;99.90;;;;;;5032119;28;19952;-78
2023/01/24 07:29:41;;;;;;;;;;;3.80;99.90;;;;;;5053181;28;19924;-79
2023/01/24 07:32:10;;;;;;;;;;;3.80;99.90;;;;;;5034871;28;20338;-79
2023/01/24 07:34:38;;;;;;;;;;;3.70;99.90;;;;;;5053833;28;20198;-79
2023/01/24 07:37:06;;;;;;;;;;;3.70;99.90;;;;;;5042173;28;20468;-79
2023/01/24 07:39:33;;;;;;;;;;;3.70;99.90;;;;;;5054766;28;19928;-79
2023/01/24 07:42:00;;;;;;;;;;;3.70;99.90;;;;;;5059508;28;20667;-80
2023/01/24 07:44:27;;;;;;;;;;;3.60;99.90;;;;;;5035824;28;19928;-79
2023/01/24 07:46:54;;;;;;;;;;;3.70;99.90;;;;;;5051415;28;20346;-80
2023/01/24 07:49:23;;;;;;;;;;;3.70;99.90;;;;;;5036252;28;20026;-79
2023/01/24 07:51:49;;;;;;;;;;;3.80;99.90;;;;;;5041179;28;19929;-80
2023/01/24 07:54:19;;;;;;;;;;;3.80;99.90;;;;;;5044460;28;19948;-79
2023/01/24 07:56:46;;;;;;;;;;;3.70;99.90;;;;;;5051335;28;19925;-79
2023/01/24 07:59:13;;;;;;;;;;;3.70;99.90;;;;;;5042028;28;19936;-80
2023/01/24 08:01:40;;;;;;;;;;;3.70;99.90;;;;;;5036535;28;19944;-80
2023/01/24 08:04:07;;;;;;;;;;;3.70;99.90;;;;;;5035529;28;19954;-80
2023/01/24 08:06:36;;;;;;;;;;;3.80;99.90;;;;;;5045737;28;19932;-80
2023/01/24 08:09:03;;;;;;;;;;;3.80;99.90;;;;;;5029554;28;19932;-79
2023/01/24 08:11:30;;;;;;;;;;;3.90;99.90;;;;;;5036775;28;19928;-80
2023/01/24 08:13:57;;;;;;;;;;;3.90;99.90;;;;;;5056307;28;19913;-80
2023/01/24 08:16:25;;;;;;;;;;;4.00;99.90;;;;;;5030327;28;19963;-80
2023/01/24 08:18:52;;;;;;;;;;;4.00;99.90;;;;;;5040620;28;19960;-79
2023/01/24 08:21:19;;;;;;;;;;;4.00;99.90;;;;;;5039410;28;19969;-79
2023/01/24 08:23:47;;;;;;;;;;;4.00;99.90;;;;;;5040927;28;19952;-79
2023/01/24 08:26:14;;;;;;;;;;;4.00;99.90;;;;;;5032102;28;19941;-79
2023/01/24 08:28:41;;;;;;;;;;;4.10;99.90;;;;;;5034258;28;19990;-79
2023/01/24 08:31:08;;;;;;;;;;;4.20;99.90;;;;;;5043034;28;19929;-80
2023/01/24 08:33:37;;;;;;;;;;;4.20;99.90;;;;;;5063234;28;20455;-79
2023/01/24 08:36:04;;;;;;;;;;;4.20;99.90;;;;;;5037371;28;19932;-80
2023/01/24 08:38:32;;;;;;;;;;;4.20;99.90;;;;;;5039582;28;20023;-77
2023/01/24 08:41:03;;;;;;;;;;;4.30;99.90;;;;;;5037841;28;19928;-77
2023/01/24 08:43:29;;;;;;;;;;;4.30;99.90;;;;;;5045174;28;19948;-76
2023/01/24 08:45:56;;;;;;;;;;;4.30;99.90;;;;;;5038999;28;20392;-77
2023/01/24 08:48:23;;;;;;;;;;;4.30;99.90;;;;;;5049043;28;20393;-77
2023/01/24 08:50:50;;;;;;;;;;;4.30;99.90;;;;;;5053162;28;20408;-77
2023/01/24 08:53:18;;;;;;;;;;;4.30;99.90;;;;;;5043240;28;19932;-77
2023/01/24 08:55:45;;;;;;;;;;;4.30;99.90;;;;;;5037821;28;20269;-76
2023/01/24 08:58:13;;;;;;;;;;;4.30;99.90;;;;;;5047807;28;19929;-76
2023/01/24 09:00:40;;;;;;;;;;;4.30;99.90;;;;;;5034547;28;20388;-77
2023/01/24 09:03:07;;;;;;;;;;;4.30;99.90;;;;;;5032443;28;19925;-76
2023/01/24 09:05:34;;;;;;;;;;;4.40;99.90;;;;;;5035737;28;19938;-76
2023/01/24 09:08:01;;;;;;;;;;;4.40;99.90;;;;;;5042188;28;19936;-77
2023/01/24 09:10:28;;;;;;;;;;;4.50;99.90;;;;;;5032412;28;19929;-76
2023/01/24 09:12:54;;;;;;;;;;;4.60;99.90;;;;;;5047233;28;20707;-77
2023/01/24 09:15:23;;;;;;;;;;;4.70;99.90;;;;;;5036982;28;19929;-76
2023/01/24 09:17:50;;;;;;;;;;;4.60;99.90;;;;;;5025607;28;20208;-78
2023/01/24 09:20:18;;;;;;;;;;;4.50;99.90;;;;;;5033947;28;20289;-77
2023/01/24 09:22:45;;;;;;;;;;;4.40;99.90;;;;;;5058082;28;19944;-77
2023/01/24 09:25:12;;;;;;;;;;;4.40;99.90;;;;;;5041485;28;19935;-77
2023/01/24 09:27:40;;;;;;;;;;;4.40;99.90;;;;;;5040507;28;19929;-78
2023/01/24 09:30:07;;;;;;;;;;;4.40;99.90;;;;;;5035590;28;19929;-77
2023/01/24 09:32:37;;;;;;;;;;;4.50;99.90;;;;;;5030791;28;20015;-78
2023/01/24 09:35:05;;;;;;;;;;;4.60;99.90;;;;;;5052040;28;19929;-83
2023/01/24 09:37:32;;;;;;;;;;;4.70;99.90;;;;;;5140212;22;19975;-75
2023/01/24 09:39:59;;;;;;;;;;;4.70;99.90;;;;;;5088260;28;19931;-75
2023/01/24 09:42:29;;;;;;;;;;;4.80;99.90;;;;;;5082860;28;19924;-76
2023/01/24 09:44:59;;;;;;;;;;;5.00;99.90;;;;;;5062448;28;19929;-76
2023/01/24 09:47:27;;;;;;;;;;;5.10;99.90;;;;;;5069689;28;20679;-75
2023/01/24 09:49:57;;;;;;;;;;;5.10;99.90;;;;;;5068378;28;19935;-76
2023/01/24 09:52:29;;;;;;;;;;;5.10;99.90;;;;;;5069269;28;19932;-76
2023/01/24 09:54:57;;;;;;;;;;;5.10;99.90;;;;;;5062933;28;19929;-75
2023/01/24 09:57:27;;;;;;;;;;;5.20;99.90;;;;;;5066523;28;20001;-75
2023/01/24 09:59:57;;;;;;;;;;;5.20;99.90;;;;;;5061887;28;19934;-74
2023/01/24 10:02:24;;;;;;;;;;;5.20;99.90;;;;;;5066974;28;19928;-76
2023/01/24 10:04:51;;;;;;;;;;;5.20;99.90;;;;;;5062718;28;19935;-75
2023/01/24 10:07:35;;;;;;;;;;;5.20;99.90;;;;;;5069149;28;19926;-75
2023/01/24 10:10:06;;;;;;;;;;;5.30;99.90;;;;;;5068069;28;19932;-76
2023/01/24 10:12:41;;;;;;;;;;;5.20;99.90;;;;;;5076762;28;19939;-75
2023/01/24 10:15:13;;;;;;;;;;;5.20;99.90;;;;;;5071477;28;19932;-75
2023/01/24 10:17:58;;;;;;;;;;;5.10;99.90;;;;;;5070245;28;19951;-75
2023/01/24 10:20:48;;;;;;;;;;;5.10;99.90;;;;;;5055467;28;20032;-77
2023/01/24 10:23:17;;;;;;;;;;;5.10;99.90;;;;;;5081086;28;19931;-76
2023/01/24 10:25:50;;;;;;;;;;;5.20;99.90;;;;;;5084440;28;19929;-76
2023/01/24 10:28:20;;;;;;;;;;;5.10;99.90;;;;;;5083075;28;20159;-76
2023/01/24 10:30:50;;;;;;;;;;;5.10;99.90;;;;;;5065660;28;20153;-76
2023/01/24 10:33:18;;;;;;;;;;;5.40;99.90;;;;;;5069245;28;19925;-75
2023/01/24 10:35:52;;;;;;;;;;;5.40;99.90;;;;;;5084598;22;19924;-78
2023/01/24 10:38:20;;;;;;;;;;;5.40;99.90;;;;;;5047878;28;19960;-73
2023/01/24 10:40:51;;;;;;;;;;;5.40;99.90;;;;;;5051788;28;19925;-73
2023/01/24 10:43:18;;;;;;;;;;;5.50;99.90;;;;;;5075538;28;19928;-79
2023/01/24 10:45:48;;;;;;;;;;;5.50;99.90;;;;;;5070213;28;19924;-74
2023/01/24 10:48:24;;;;;;;;;;;5.60;99.90;;;;;;5069352;28;19928;-73
2023/01/24 10:50:51;;;;;;;;;;;5.70;99.90;;;;;;5047038;28;19947;-76
2023/01/24 10:53:23;;;;;;;;;;;5.80;99.90;;;;;;5070088;28;19977;-77
2023/01/24 10:55:57;;;;;;;;;;;5.80;99.90;;;;;;5065860;28;20409;-77
2023/01/24 10:58:25;;;;;;;;;;;5.80;99.90;;;;;;5071396;28;19935;-73
2023/01/24 11:00:56;;;;;;;;;;;5.80;99.90;;;;;;5070969;28;19939;-74
2023/01/24 11:03:24;;;;;;;;;;;5.80;99.90;;;;;;5069066;28;20480;-73
2023/01/24 11:05:52;;;;;;;;;;;5.80;99.90;;;;;;5067110;28;20219;-73
2023/01/24 11:08:20;;;;;;;;;;;5.90;99.90;;;;;;5064463;28;19932;-75
2023/01/24 11:10:51;;;;;;;;;;;6.00;99.90;;;;;;5065434;28;19931;-73
2023/01/24 11:13:26;;;;;;;;;;;6.00;99.90;;;;;;5067145;28;20518;-75
2023/01/24 11:15:54;;;;;;;;;;;6.10;99.90;;;;;;5041621;28;19936;-74
2023/01/24 11:18:24;;;;;;;;;;;6.00;99.90;;;;;;5072141;28;20401;-73
2023/01/24 11:21:04;;;;;;;;;;;6.00;99.90;;;;;;5062050;28;19928;-73
2023/01/24 11:23:31;;;;;;;;;;;6.00;99.90;;;;;;5055354;28;19928;-74
2023/01/24 11:26:01;;;;;;;;;;;5.80;99.90;;;;;;5069066;28;19928;-77
2023/01/24 11:28:28;;;;;;;;;;;5.80;99.90;;;;;;5070723;28;19964;-74
2023/01/24 11:30:56;;;;;;;;;;;5.80;99.90;;;;;;5068189;28;20027;-73
2023/01/24 11:33:34;;;;;;;;;;;5.90;99.90;;;;;;5061967;28;20002;-73
2023/01/24 11:36:02;;;;;;;;;;;5.90;99.90;;;;;;5046077;28;19979;-74
2023/01/24 11:38:30;;;;;;;;;;;5.90;99.90;;;;;;5071082;28;20443;-74
2023/01/24 11:41:06;;;;;;;;;;;5.90;99.90;;;;;;5048835;28;19932;-73
2023/01/24 11:43:40;;;;;;;;;;;5.90;99.90;;;;;;5066925;28;19966;-74
2023/01/24 11:46:24;;;;;;;;;;;5.90;99.90;;;;;;5061996;28;19928;-73
2023/01/24 11:48:54;;;;;;;;;;;6.10;99.90;;;;;;5066883;28;19981;-77
2023/01/24 11:51:23;;;;;;;;;;;6.20;99.90;;;;;;5066292;28;20444;-78
2023/01/24 11:53:56;;;;;;;;;;;6.30;99.90;;;;;;5065038;28;19932;-75
2023/01/24 11:56:28;;;;;;;;;;;6.20;99.90;;;;;;5064146;28;19928;-76
2023/01/24 11:59:10;;;;;;;;;;;6.20;99.90;;;;;;5062271;28;20031;-75
2023/01/24 12:01:44;;;;;;;;;;;6.20;99.90;;;;;;5044438;28;20380;-78
2023/01/24 12:04:25;;;;;;;;;;;6.10;99.90;;;;;;5067060;28;20286;-79
2023/01/24 12:06:55;;;;;;;;;;;6.10;99.90;;;;;;5059853;28;19935;-75
2023/01/24 12:09:23;;;;;;;;;;;6.00;99.90;;;;;;5070178;28;19924;-72
2023/01/24 12:11:56;;;;;;;;;;;6.10;99.90;;;;;;5048892;28;20369;-73
2023/01/24 12:14:29;;;;;;;;;;;6.20;99.90;;;;;;5067107;28;19944;-78
2023/01/24 12:17:01;;;;;;;;;;;6.20;99.90;;;;;;5069239;28;19979;-77
2023/01/24 12:19:35;;;;;;;;;;;6.40;99.90;;;;;;5050385;28;20290;-74
2023/01/24 12:22:03;;;;;;;;;;;6.50;99.90;;;;;;5054969;28;19929;-73
2023/01/24 12:24:31;;;;;;;;;;;6.50;99.90;;;;;;5073935;28;19928;-74
2023/01/24 12:27:02;;;;;;;;;;;6.50;99.90;;;;;;5054802;28;20284;-73
2023/01/24 12:29:32;;;;;;;;;;;6.50;99.90;;;;;;5051050;28;19924;-72
2023/01/24 12:32:02;;;;;;;;;;;6.50;99.90;;;;;;5064970;28;20389;-73
2023/01/24 12:34:33;;;;;;;;;;;6.50;99.90;;;;;;5069869;28;20377;-74
2023/01/24 12:37:01;;;;;;;;;;;6.50;99.90;;;;;;5069986;28;19928;-78
2023/01/24 12:39:33;;;;;;;;;;;6.60;99.90;;;;;;5083017;28;19924;-73
2023/01/24 12:42:05;;;;;;;;;;;6.60;99.90;;;;;;5064774;28;19928;-77
2023/01/24 12:44:33;;;;;;;;;;;6.60;99.90;;;;;;5049521;28;20122;-77
2023/01/24 12:47:05;;;;;;;;;;;6.60;99.90;;;;;;5064039;28;19928;-77
2023/01/24 12:49:37;;;;;;;;;;;6.50;99.90;;;;;;5067966;28;19931;-73
2023/01/24 12:52:08;;;;;;;;;;;6.60;99.90;;;;;;5068480;28;19928;-75
2023/01/24 12:54:39;;;;;;;;;;;6.80;99.90;;;;;;5064303;28;19924;-75
2023/01/24 12:57:12;;;;;;;;;;;6.90;99.90;;;;;;5061839;28;19929;-77
2023/01/24 12:59:38;;;;;;;;;;;7.00;99.90;;;;;;5070183;28;20144;-73
2023/01/24 13:02:14;;;;;;;;;;;7.00;99.90;;;;;;5062327;28;19932;-75
2023/01/24 13:04:45;;;;;;;;;;;7.00;99.90;;;;;;5067844;28;19932;-77
2023/01/24 13:07:18;;;;;;;;;;;7.00;99.90;;;;;;5067502;28;19928;-74
2023/01/24 13:09:49;;;;;;;;;;;6.80;99.90;;;;;;5070228;28;19928;-76
2023/01/24 13:12:20;;;;;;;;;;;6.60;99.90;;;;;;5069761;28;20551;-78
2023/01/24 13:14:50;;;;;;;;;;;6.50;99.90;;;;;;5055797;28;20039;-74
2023/01/24 13:17:38;;;;;;;;;;;6.40;99.90;;;;;;5066452;28;19990;-74
2023/01/24 13:20:13;;;;;;;;;;;6.40;99.90;;;;;;5062272;28;19930;-73
2023/01/24 13:22:47;;;;;;;;;;;6.20;99.90;;;;;;5061371;28;19933;-74
2023/01/24 13:25:25;;;;;;;;;;;6.20;99.90;;;;;;5063745;28;20367;-75
2023/01/24 13:27:55;;;;;;;;;;;6.10;99.90;;;;;;5063866;28;20452;-76
2023/01/24 13:30:25;;;;;;;;;;;6.10;99.90;;;;;;5067800;28;20275;-75
2023/01/24 13:32:53;;;;;;;;;;;6.10;99.90;;;;;;5066693;28;19932;-75
2023/01/24 13:35:21;;;;;;;;;;;6.10;99.90;;;;;;5064608;28;19925;-74
2023/01/24 13:37:52;;;;;;;;;;;6.10;99.90;;;;;;5069083;28;19946;-74
2023/01/24 13:40:26;;;;;;;;;;;6.10;99.90;;;;;;5070904;28;19981;-77
2023/01/24 13:42:54;;;;;;;;;;;6.10;99.90;;;;;;5073297;28;19929;-73
2023/01/24 13:45:41;;;;;;;;;;;6.10;99.90;;;;;;5076533;28;20308;-76
2023/01/24 13:48:37;;;;;;;;;;;6.20;99.90;;;;;;5068166;28;20007;-75
2023/01/24 13:51:19;;;;;;;;;;;6.10;99.90;;;;;;5070220;28;19933;-73
2023/01/24 13:53:59;;;;;;;;;;;5.90;99.90;;;;;;5048526;28;20011;-73
2023/01/24 13:56:25;;;;;;;;;;;5.80;99.90;;;;;;5068206;28;20002;-74
2023/01/24 13:58:54;;;;;;;;;;;5.90;99.90;;;;;;5080107;28;19932;-73
2023/01/24 14:01:23;;;;;;;;;;;5.80;99.90;;;;;;5051833;28;19947;-74
2023/01/24 14:03:55;;;;;;;;;;;5.80;99.90;;;;;;5075127;28;19932;-74
2023/01/24 14:06:23;;;;;;;;;;;5.80;99.90;;;;;;5051796;28;19924;-73
2023/01/24 14:09:01;;;;;;;;;;;5.80;99.90;;;;;;5054957;28;20019;-73
2023/01/24 14:11:32;;;;;;;;;;;5.80;99.90;;;;;;5069936;28;19935;-75
2023/01/24 14:14:02;;;;;;;;;;;5.80;99.90;;;;;;5072949;28;19928;-73
2023/01/24 14:16:47;;;;;;;;;;;4.00;99.90;;;;;;5073242;28;19924;-73
2023/01/24 14:19:16;;;;;;;;;;;5.50;99.90;;;;;;5067028;28;19924;-77
2023/01/24 14:21:47;;;;;;;;;;;5.40;99.90;;;;;;5072209;28;20357;-74
2023/01/24 14:24:20;;;;;;;;;;;5.50;99.90;;;;;;5064698;28;19939;-73
2023/01/24 14:26:51;;;;;;;;;;;5.40;99.90;;;;;;5060811;28;19928;-75
2023/01/24 14:29:19;;;;;;;;;;;5.40;99.90;;;;;;5078818;28;20446;-76
2023/01/24 14:31:46;;;;;;;;;;;5.40;99.90;;;;;;5067176;28;20043;-75
2023/01/24 14:34:16;;;;;;;;;;;5.40;99.90;;;;;;5061350;28;19935;-75
2023/01/24 14:36:44;;;;;;;;;;;5.40;99.90;;;;;;5074354;28;19929;-76
2023/01/24 14:39:18;;;;;;;;;;;5.30;99.90;;;;;;5050773;28;20195;-75
2023/01/24 14:41:46;;;;;;;;;;;5.30;99.90;;;;;;5065350;28;20038;-75
2023/01/24 14:44:17;;;;;;;;;;;5.10;99.90;;;;;;5062562;28;19998;-75
2023/01/24 14:46:52;;;;;;;;;;;5.10;99.90;;;;;;5063994;28;20408;-74
2023/01/24 14:49:25;;;;;;;;;;;5.00;99.90;;;;;;5052651;28;19936;-76
2023/01/24 14:51:52;;;;;;;;;;;4.90;99.90;;;;;;5071862;28;19928;-75
2023/01/24 14:54:20;;;;;;;;;;;4.90;99.90;;;;;;5071884;28;20286;-78
2023/01/24 14:56:47;;;;;;;;;;;4.90;99.90;;;;;;5046009;28;19924;-74
2023/01/24 14:59:14;;;;;;;;;;;4.90;99.90;;;;;;5067886;28;20376;-77
2023/01/24 15:01:42;;;;;;;;;;;4.90;99.90;;;;;;5058147;28;21575;-75
2023/01/24 15:04:22;;;;;;;;;;;4.90;99.90;;;;;;5062646;28;20259;-75
2023/01/24 15:07:03;;;;;;;;;;;5.40;99.90;;;;;;5058763;28;20289;-77
2023/01/24 15:09:30;;;;;;;;;;;4.80;99.90;;;;;;5063619;28;20459;-75
2023/01/24 15:11:57;;;;;;;;;;;4.80;99.90;;;;;;5067131;28;20015;-74
2023/01/24 15:14:24;;;;;;;;;;;4.70;99.90;;;;;;5069802;28;19959;-75
2023/01/24 15:16:52;;;;;;;;;;;4.70;99.90;;;;;;5059616;28;19931;-73
2023/01/24 15:19:20;;;;;;;;;;;4.70;99.90;;;;;;5061586;28;19989;-73
2023/01/24 15:21:49;;;;;;;;;;;4.70;99.90;;;;;;5065499;28;20443;-72
2023/01/24 15:24:19;;;;;;;;;;;4.70;99.90;;;;;;5045203;28;19932;-75
2023/01/24 15:26:47;;;;;;;;;;;4.70;99.90;;;;;;5064143;28;19975;-75